Perseverance — WDD5594 — position and weather

sailwx.info

Track history (hours):
 
Tides and Currents Weather Stations Pressure Air Temp Water Temp Dewpoint Dewpoint Depression Visibility Wind Speed Wind Dir Waves Ship Positions

Perseverance

Owner: Cooper, Mark E, Toledo, OR. More information available from US FCC via Universal Licensing System and Coast Guard Vessel Documentation Center.

Last reported at 2014-Oct-30 03:25 UTC. Time now 2014-Oct-30 14:29 UTC.
Position N 45°20' W 124°35'.

Type: Fishing. MMSI: 367618000.

Date/timePositionNaut miles runAvg speedWind from/ knotsBaromVisibWave heightAir tempDewpointWater temp
2014-Oct-30 03:25N 45°20' W 124°35'8 9.2
2014-Oct-30 02:33N 45°28' W 124°31'7 7.4
2014-Oct-30 01:33N 45°35' W 124°35'8 7.6
2014-Oct-30 00:33N 45°41' W 124°41'7 6.7
2014-Oct-29 23:34N 45°46' W 124°47'7 7.2
2014-Oct-29 22:33N 45°53' W 124°45'6 6.4
2014-Oct-29 21:33N 45°59' W 124°42'8 7.6
2014-Oct-29 20:33N 46°03' W 124°33'8 7.8
2014-Oct-29 19:33N 46°07' W 124°24'8 8.4
2014-Oct-29 18:33N 46°12' W 124°13'8 7.8
2014-Oct-29 17:33N 46°15' W 124°03'9 8.8
2014-Oct-29 16:34N 46°11' W 123°52'0 0.1
2014-Oct-29 15:33N 46°11' W 123°52'0 0.0
2014-Oct-29 14:33N 46°11' W 123°52'0 0.0
2014-Oct-29 13:33N 46°11' W 123°52'0 0.0
2014-Oct-29 12:33N 46°11' W 123°52'0 0.0
2014-Oct-29 11:33N 46°11' W 123°52'0 0.0
2014-Oct-29 10:33N 46°11' W 123°52'0 0.0
2014-Oct-29 09:33N 46°11' W 123°52'0 0.0
2014-Oct-29 08:33N 46°11' W 123°52'0 0.0
2014-Oct-29 07:33N 46°11' W 123°52'0 0.0
2014-Oct-29 06:33N 46°11' W 123°52'0 0.0
2014-Oct-29 05:33N 46°11' W 123°52'0 0.0
2014-Oct-29 04:33N 46°11' W 123°52'0 0.0
2014-Oct-29 03:33N 46°11' W 123°52'0 0.0
2014-Oct-29 02:33N 46°11' W 123°52'0 0.0
2014-Oct-29 01:33N 46°11' W 123°52'0 0.0
2014-Oct-29 00:33N 46°11' W 123°52'0 0.0
2014-Oct-28 23:33N 46°11' W 123°52'0 0.0
2014-Oct-28 22:33N 46°11' W 123°52'0 0.0
2014-Oct-28 21:33N 46°11' W 123°52'0 0.0
2014-Oct-28 20:33N 46°11' W 123°52'0 0.0
2014-Oct-28 19:33N 46°11' W 123°52'0 0.0
2014-Oct-28 18:33N 46°11' W 123°52'0 0.0
2014-Oct-28 17:33N 46°11' W 123°52'0 0.0
2014-Oct-28 16:33N 46°11' W 123°52'0 0.0
2014-Oct-28 15:33N 46°11' W 123°52'25 1.0
2014-Oct-27 15:30N 45°57' W 124°21'8 8.8
2014-Oct-27 14:33N 45°49' W 124°27'9 8.6
2014-Oct-27 13:33N 45°42' W 124°33'7 7.1
2014-Oct-27 12:33N 45°35' W 124°32'8 7.8
2014-Oct-27 11:33N 45°27' W 124°33'8 8.0
2014-Oct-27 10:33N 45°19' W 124°34'  
Track history (hours):
 
Tides and Currents Weather Stations Pressure Air Temp Water Temp Dewpoint Dewpoint Depression Visibility Wind Speed Wind Dir Waves Ship Positions

Perseverance

Owner: Cooper, Mark E, Toledo, OR. More information available from US FCC via Universal Licensing System and Coast Guard Vessel Documentation Center.

Last reported at 2014-Oct-30 03:25 UTC. Time now 2014-Oct-30 14:29 UTC.
Position N 45°20' W 124°35'.

Type: Fishing. MMSI: 367618000.

Date/timePositionNaut miles runAvg speedWind from/ knotsBaromVisibWave heightAir tempDewpointWater temp
2014-Oct-30 03:25N 45°20' W 124°35'8 9.2
2014-Oct-30 02:33N 45°28' W 124°31'7 7.4
2014-Oct-30 01:33N 45°35' W 124°35'8 7.6
2014-Oct-30 00:33N 45°41' W 124°41'7 6.7
2014-Oct-29 23:34N 45°46' W 124°47'7 7.2
2014-Oct-29 22:33N 45°53' W 124°45'6 6.4
2014-Oct-29 21:33N 45°59' W 124°42'8 7.6
2014-Oct-29 20:33N 46°03' W 124°33'8 7.8
2014-Oct-29 19:33N 46°07' W 124°24'8 8.4
2014-Oct-29 18:33N 46°12' W 124°13'8 7.8
2014-Oct-29 17:33N 46°15' W 124°03'9 8.8
2014-Oct-29 16:34N 46°11' W 123°52'0 0.1
2014-Oct-29 15:33N 46°11' W 123°52'0 0.0
2014-Oct-29 14:33N 46°11' W 123°52'0 0.0
2014-Oct-29 13:33N 46°11' W 123°52'0 0.0
2014-Oct-29 12:33N 46°11' W 123°52'0 0.0
2014-Oct-29 11:33N 46°11' W 123°52'0 0.0
2014-Oct-29 10:33N 46°11' W 123°52'0 0.0
2014-Oct-29 09:33N 46°11' W 123°52'0 0.0
2014-Oct-29 08:33N 46°11' W 123°52'0 0.0
2014-Oct-29 07:33N 46°11' W 123°52'0 0.0
2014-Oct-29 06:33N 46°11' W 123°52'0 0.0
2014-Oct-29 05:33N 46°11' W 123°52'0 0.0
2014-Oct-29 04:33N 46°11' W 123°52'0 0.0
2014-Oct-29 03:33N 46°11' W 123°52'0 0.0
2014-Oct-29 02:33N 46°11' W 123°52'0 0.0
2014-Oct-29 01:33N 46°11' W 123°52'0 0.0
2014-Oct-29 00:33N 46°11' W 123°52'0 0.0
2014-Oct-28 23:33N 46°11' W 123°52'0 0.0
2014-Oct-28 22:33N 46°11' W 123°52'0 0.0
2014-Oct-28 21:33N 46°11' W 123°52'0 0.0
2014-Oct-28 20:33N 46°11' W 123°52'0 0.0
2014-Oct-28 19:33N 46°11' W 123°52'0 0.0
2014-Oct-28 18:33N 46°11' W 123°52'0 0.0
2014-Oct-28 17:33N 46°11' W 123°52'0 0.0
2014-Oct-28 16:33N 46°11' W 123°52'0 0.0
2014-Oct-28 15:33N 46°11' W 123°52'25 1.0
2014-Oct-27 15:30N 45°57' W 124°21'8 8.8
2014-Oct-27 14:33N 45°49' W 124°27'9 8.6
2014-Oct-27 13:33N 45°42' W 124°33'7 7.1
2014-Oct-27 12:33N 45°35' W 124°32'8 7.8
2014-Oct-27 11:33N 45°27' W 124°33'8 8.0
2014-Oct-27 10:33N 45°19' W 124°34'  

Dump ship's entire track history